sensor_id;sensor_type;location;lat;lon;timestamp;P1;durP1;ratioP1;P2;durP2;ratioP2
60612;SDS011;46443;59.792;17.626;2024-01-16T00:01:56;1.10;;;1.10;;
60612;SDS011;46443;59.792;17.626;2024-01-16T00:04:22;1.00;;;1.00;;
60612;SDS011;46443;59.792;17.626;2024-01-16T00:06:48;1.00;;;1.00;;
60612;SDS011;46443;59.792;17.626;2024-01-16T00:09:14;1.38;;;1.20;;
60612;SDS011;46443;59.792;17.626;2024-01-16T00:11:41;1.00;;;1.00;;
60612;SDS011;46443;59.792;17.626;2024-01-16T00:14:07;1.55;;;1.38;;
60612;SDS011;46443;59.792;17.626;2024-01-16T00:16:33;1.00;;;1.00;;
60612;SDS011;46443;59.792;17.626;2024-01-16T00:18:59;1.25;;;1.20;;
60612;SDS011;46443;59.792;17.626;2024-01-16T00:21:25;1.00;;;1.00;;
60612;SDS011;46443;59.792;17.626;2024-01-16T00:23:51;1.50;;;1.23;;
60612;SDS011;46443;59.792;17.626;2024-01-16T00:26:21;1.00;;;1.00;;
60612;SDS011;46443;59.792;17.626;2024-01-16T00:28:47;1.10;;;1.10;;
60612;SDS011;46443;59.792;17.626;2024-01-16T00:31:13;1.20;;;1.20;;
60612;SDS011;46443;59.792;17.626;2024-01-16T00:33:39;1.05;;;1.05;;
60612;SDS011;46443;59.792;17.626;2024-01-16T00:36:05;1.00;;;1.00;;
60612;SDS011;46443;59.792;17.626;2024-01-16T00:38:35;1.00;;;1.00;;
60612;SDS011;46443;59.792;17.626;2024-01-16T00:41:01;1.30;;;1.20;;
60612;SDS011;46443;59.792;17.626;2024-01-16T00:43:27;0.90;;;0.90;;
60612;SDS011;46443;59.792;17.626;2024-01-16T00:45:53;1.00;;;1.00;;
60612;SDS011;46443;59.792;17.626;2024-01-16T00:48:19;1.00;;;1.00;;
60612;SDS011;46443;59.792;17.626;2024-01-16T00:50:46;1.10;;;1.10;;
60612;SDS011;46443;59.792;17.626;2024-01-16T00:53:15;1.17;;;1.15;;
60612;SDS011;46443;59.792;17.626;2024-01-16T00:55:41;1.00;;;1.00;;
60612;SDS011;46443;59.792;17.626;2024-01-16T00:58:07;1.05;;;1.00;;
60612;SDS011;46443;59.792;17.626;2024-01-16T01:00:33;1.30;;;1.20;;
60612;SDS011;46443;59.792;17.626;2024-01-16T01:03:02;1.10;;;1.10;;
60612;SDS011;46443;59.792;17.626;2024-01-16T01:05:29;0.98;;;0.98;;
60612;SDS011;46443;59.792;17.626;2024-01-16T01:07:55;1.00;;;1.00;;
60612;SDS011;46443;59.792;17.626;2024-01-16T01:10:21;1.20;;;1.15;;
60612;SDS011;46443;59.792;17.626;2024-01-16T01:12:47;1.00;;;1.00;;
60612;SDS011;46443;59.792;17.626;2024-01-16T01:15:13;1.02;;;1.02;;
60612;SDS011;46443;59.792;17.626;2024-01-16T01:17:40;1.10;;;1.10;;
60612;SDS011;46443;59.792;17.626;2024-01-16T01:20:07;1.00;;;1.00;;
60612;SDS011;46443;59.792;17.626;2024-01-16T01:22:34;1.02;;;1.02;;
60612;SDS011;46443;59.792;17.626;2024-01-16T01:25:00;1.00;;;1.00;;
60612;SDS011;46443;59.792;17.626;2024-01-16T01:27:26;1.27;;;1.25;;
60612;SDS011;46443;59.792;17.626;2024-01-16T01:29:52;1.95;;;0.95;;
60612;SDS011;46443;59.792;17.626;2024-01-16T01:32:18;1.17;;;0.98;;
60612;SDS011;46443;59.792;17.626;2024-01-16T01:34:44;0.80;;;0.80;;
60612;SDS011;46443;59.792;17.626;2024-01-16T01:37:10;0.93;;;0.93;;
60612;SDS011;46443;59.792;17.626;2024-01-16T01:39:36;0.88;;;0.88;;
60612;SDS011;46443;59.792;17.626;2024-01-16T01:42:02;1.17;;;1.10;;
60612;SDS011;46443;59.792;17.626;2024-01-16T01:44:29;1.05;;;0.95;;
60612;SDS011;46443;59.792;17.626;2024-01-16T01:46:55;0.93;;;0.93;;
60612;SDS011;46443;59.792;17.626;2024-01-16T01:49:22;0.90;;;0.90;;
60612;SDS011;46443;59.792;17.626;2024-01-16T01:51:49;0.80;;;0.80;;
60612;SDS011;46443;59.792;17.626;2024-01-16T01:54:15;1.00;;;1.00;;
60612;SDS011;46443;59.792;17.626;2024-01-16T01:56:45;2.67;;;1.10;;
60612;SDS011;46443;59.792;17.626;2024-01-16T01:59:12;0.90;;;0.90;;
60612;SDS011;46443;59.792;17.626;2024-01-16T02:01:40;1.00;;;1.00;;
60612;SDS011;46443;59.792;17.626;2024-01-16T02:04:06;0.90;;;0.90;;
60612;SDS011;46443;59.792;17.626;2024-01-16T02:06:32;1.50;;;1.02;;
60612;SDS011;46443;59.792;17.626;2024-01-16T02:08:58;0.95;;;0.95;;
60612;SDS011;46443;59.792;17.626;2024-01-16T02:11:25;0.85;;;0.85;;
60612;SDS011;46443;59.792;17.626;2024-01-16T02:13:51;1.30;;;1.30;;
60612;SDS011;46443;59.792;17.626;2024-01-16T02:16:23;1.20;;;1.10;;
60612;SDS011;46443;59.792;17.626;2024-01-16T02:18:50;0.80;;;0.80;;
60612;SDS011;46443;59.792;17.626;2024-01-16T02:21:24;0.90;;;0.90;;
60612;SDS011;46443;59.792;17.626;2024-01-16T02:23:51;1.25;;;1.25;;
60612;SDS011;46443;59.792;17.626;2024-01-16T02:26:17;1.00;;;1.00;;
60612;SDS011;46443;59.792;17.626;2024-01-16T02:28:44;0.95;;;0.95;;
60612;SDS011;46443;59.792;17.626;2024-01-16T02:31:10;0.90;;;0.90;;
60612;SDS011;46443;59.792;17.626;2024-01-16T02:33:36;0.90;;;0.90;;
60612;SDS011;46443;59.792;17.626;2024-01-16T02:36:03;0.90;;;0.90;;
60612;SDS011;46443;59.792;17.626;2024-01-16T02:38:29;0.90;;;0.90;;
60612;SDS011;46443;59.792;17.626;2024-01-16T02:40:55;0.95;;;0.95;;
60612;SDS011;46443;59.792;17.626;2024-01-16T02:43:21;1.10;;;1.10;;
60612;SDS011;46443;59.792;17.626;2024-01-16T02:45:48;1.00;;;1.00;;
60612;SDS011;46443;59.792;17.626;2024-01-16T02:48:14;0.90;;;0.90;;
60612;SDS011;46443;59.792;17.626;2024-01-16T02:50:40;1.08;;;1.08;;
60612;SDS011;46443;59.792;17.626;2024-01-16T02:53:06;2.13;;;1.13;;
60612;SDS011;46443;59.792;17.626;2024-01-16T02:55:32;1.10;;;1.10;;
60612;SDS011;46443;59.792;17.626;2024-01-16T02:57:58;1.00;;;1.00;;
60612;SDS011;46443;59.792;17.626;2024-01-16T03:00:25;1.00;;;1.00;;
60612;SDS011;46443;59.792;17.626;2024-01-16T03:02:51;1.10;;;1.10;;
60612;SDS011;46443;59.792;17.626;2024-01-16T03:05:17;1.00;;;1.00;;
60612;SDS011;46443;59.792;17.626;2024-01-16T03:07:43;1.00;;;1.00;;
60612;SDS011;46443;59.792;17.626;2024-01-16T03:10:10;1.25;;;0.98;;
60612;SDS011;46443;59.792;17.626;2024-01-16T03:12:36;1.27;;;1.17;;
60612;SDS011;46443;59.792;17.626;2024-01-16T03:15:03;0.98;;;0.98;;
60612;SDS011;46443;59.792;17.626;2024-01-16T03:17:29;0.90;;;0.90;;
60612;SDS011;46443;59.792;17.626;2024-01-16T03:19:55;1.00;;;1.00;;
60612;SDS011;46443;59.792;17.626;2024-01-16T03:22:21;2.10;;;1.17;;
60612;SDS011;46443;59.792;17.626;2024-01-16T03:24:49;1.00;;;1.00;;
60612;SDS011;46443;59.792;17.626;2024-01-16T03:27:15;1.25;;;1.20;;
60612;SDS011;46443;59.792;17.626;2024-01-16T03:29:42;1.00;;;1.00;;
60612;SDS011;46443;59.792;17.626;2024-01-16T03:32:08;0.95;;;0.95;;
60612;SDS011;46443;59.792;17.626;2024-01-16T03:34:34;1.10;;;1.10;;
60612;SDS011;46443;59.792;17.626;2024-01-16T03:37:00;1.08;;;1.08;;
60612;SDS011;46443;59.792;17.626;2024-01-16T03:39:26;1.02;;;1.02;;
60612;SDS011;46443;59.792;17.626;2024-01-16T03:41:52;1.00;;;1.00;;
60612;SDS011;46443;59.792;17.626;2024-01-16T03:44:18;1.10;;;1.10;;
60612;SDS011;46443;59.792;17.626;2024-01-16T03:46:44;1.00;;;1.00;;
60612;SDS011;46443;59.792;17.626;2024-01-16T03:49:10;1.20;;;1.20;;
60612;SDS011;46443;59.792;17.626;2024-01-16T03:51:36;1.00;;;1.00;;
60612;SDS011;46443;59.792;17.626;2024-01-16T03:54:03;1.15;;;1.15;;
60612;SDS011;46443;59.792;17.626;2024-01-16T03:56:29;1.10;;;1.10;;
60612;SDS011;46443;59.792;17.626;2024-01-16T03:58:55;1.00;;;1.00;;
60612;SDS011;46443;59.792;17.626;2024-01-16T04:01:30;1.23;;;1.10;;
60612;SDS011;46443;59.792;17.626;2024-01-16T04:03:57;1.00;;;1.00;;
60612;SDS011;46443;59.792;17.626;2024-01-16T04:06:23;1.88;;;1.27;;
60612;SDS011;46443;59.792;17.626;2024-01-16T04:08:49;1.10;;;1.10;;
60612;SDS011;46443;59.792;17.626;2024-01-16T04:11:15;1.20;;;1.20;;
60612;SDS011;46443;59.792;17.626;2024-01-16T04:13:41;1.20;;;1.20;;
60612;SDS011;46443;59.792;17.626;2024-01-16T04:16:07;1.00;;;1.00;;
60612;SDS011;46443;59.792;17.626;2024-01-16T04:18:37;1.00;;;1.00;;
60612;SDS011;46443;59.792;17.626;2024-01-16T04:21:03;1.02;;;1.02;;
60612;SDS011;46443;59.792;17.626;2024-01-16T04:23:29;1.08;;;1.08;;
60612;SDS011;46443;59.792;17.626;2024-01-16T04:25:55;1.17;;;1.17;;
60612;SDS011;46443;59.792;17.626;2024-01-16T04:28:21;1.10;;;1.10;;
60612;SDS011;46443;59.792;17.626;2024-01-16T04:30:47;1.00;;;1.00;;
60612;SDS011;46443;59.792;17.626;2024-01-16T04:33:13;0.98;;;0.98;;
60612;SDS011;46443;59.792;17.626;2024-01-16T04:35:39;1.00;;;1.00;;
60612;SDS011;46443;59.792;17.626;2024-01-16T04:38:05;1.23;;;1.20;;
60612;SDS011;46443;59.792;17.626;2024-01-16T04:40:32;1.10;;;1.10;;
60612;SDS011;46443;59.792;17.626;2024-01-16T04:42:58;1.13;;;1.13;;
60612;SDS011;46443;59.792;17.626;2024-01-16T04:45:25;1.00;;;1.00;;
60612;SDS011;46443;59.792;17.626;2024-01-16T04:47:51;1.13;;;1.13;;
60612;SDS011;46443;59.792;17.626;2024-01-16T04:50:18;1.10;;;1.10;;
60612;SDS011;46443;59.792;17.626;2024-01-16T04:52:44;1.10;;;1.10;;
60612;SDS011;46443;59.792;17.626;2024-01-16T04:55:10;1.10;;;1.10;;
60612;SDS011;46443;59.792;17.626;2024-01-16T04:57:36;1.10;;;1.10;;
60612;SDS011;46443;59.792;17.626;2024-01-16T05:00:02;1.10;;;1.10;;
60612;SDS011;46443;59.792;17.626;2024-01-16T05:04:58;1.10;;;1.10;;
60612;SDS011;46443;59.792;17.626;2024-01-16T05:07:24;1.00;;;1.00;;
60612;SDS011;46443;59.792;17.626;2024-01-16T05:09:51;1.20;;;1.20;;
60612;SDS011;46443;59.792;17.626;2024-01-16T05:12:18;1.25;;;1.25;;
60612;SDS011;46443;59.792;17.626;2024-01-16T05:14:45;1.52;;;1.52;;
60612;SDS011;46443;59.792;17.626;2024-01-16T05:17:11;1.10;;;1.10;;
60612;SDS011;46443;59.792;17.626;2024-01-16T05:19:37;1.20;;;1.20;;
60612;SDS011;46443;59.792;17.626;2024-01-16T05:22:03;1.40;;;1.30;;
60612;SDS011;46443;59.792;17.626;2024-01-16T05:24:30;1.20;;;1.20;;
60612;SDS011;46443;59.792;17.626;2024-01-16T05:26:56;1.20;;;1.20;;
60612;SDS011;46443;59.792;17.626;2024-01-16T05:29:22;1.10;;;1.10;;
60612;SDS011;46443;59.792;17.626;2024-01-16T05:31:48;1.10;;;1.10;;
60612;SDS011;46443;59.792;17.626;2024-01-16T05:34:14;3.53;;;1.60;;
60612;SDS011;46443;59.792;17.626;2024-01-16T05:36:41;1.10;;;1.10;;
60612;SDS011;46443;59.792;17.626;2024-01-16T05:39:07;1.40;;;1.30;;
60612;SDS011;46443;59.792;17.626;2024-01-16T05:41:34;1.05;;;1.05;;
60612;SDS011;46443;59.792;17.626;2024-01-16T05:44:00;1.45;;;1.35;;
60612;SDS011;46443;59.792;17.626;2024-01-16T05:46:30;1.20;;;1.20;;
60612;SDS011;46443;59.792;17.626;2024-01-16T05:48:56;1.10;;;1.10;;
60612;SDS011;46443;59.792;17.626;2024-01-16T05:51:23;1.40;;;1.38;;
60612;SDS011;46443;59.792;17.626;2024-01-16T05:53:49;1.20;;;1.20;;
60612;SDS011;46443;59.792;17.626;2024-01-16T05:56:15;1.10;;;1.10;;
60612;SDS011;46443;59.792;17.626;2024-01-16T05:58:41;1.13;;;1.13;;
60612;SDS011;46443;59.792;17.626;2024-01-16T06:01:07;1.08;;;1.08;;
60612;SDS011;46443;59.792;17.626;2024-01-16T06:03:33;1.10;;;1.10;;
60612;SDS011;46443;59.792;17.626;2024-01-16T06:05:59;2.25;;;1.17;;
60612;SDS011;46443;59.792;17.626;2024-01-16T06:08:25;1.00;;;1.00;;
60612;SDS011;46443;59.792;17.626;2024-01-16T06:10:51;1.20;;;1.20;;
60612;SDS011;46443;59.792;17.626;2024-01-16T06:13:18;1.20;;;1.20;;
60612;SDS011;46443;59.792;17.626;2024-01-16T06:15:44;1.20;;;1.20;;
60612;SDS011;46443;59.792;17.626;2024-01-16T06:18:10;1.08;;;1.08;;
60612;SDS011;46443;59.792;17.626;2024-01-16T06:20:36;1.30;;;1.30;;
60612;SDS011;46443;59.792;17.626;2024-01-16T06:23:02;1.10;;;1.10;;
60612;SDS011;46443;59.792;17.626;2024-01-16T06:25:29;1.10;;;1.10;;
60612;SDS011;46443;59.792;17.626;2024-01-16T06:27:55;1.10;;;1.10;;
60612;SDS011;46443;59.792;17.626;2024-01-16T06:30:21;1.10;;;1.10;;
60612;SDS011;46443;59.792;17.626;2024-01-16T06:32:48;1.75;;;1.40;;
60612;SDS011;46443;59.792;17.626;2024-01-16T06:35:15;1.15;;;1.15;;
60612;SDS011;46443;59.792;17.626;2024-01-16T06:37:42;1.20;;;1.20;;
60612;SDS011;46443;59.792;17.626;2024-01-16T06:40:08;1.10;;;1.10;;
60612;SDS011;46443;59.792;17.626;2024-01-16T06:42:34;1.70;;;1.60;;
60612;SDS011;46443;59.792;17.626;2024-01-16T06:45:03;1.80;;;1.75;;
60612;SDS011;46443;59.792;17.626;2024-01-16T06:47:30;1.40;;;1.40;;
60612;SDS011;46443;59.792;17.626;2024-01-16T06:49:56;1.13;;;1.13;;
60612;SDS011;46443;59.792;17.626;2024-01-16T06:52:22;1.50;;;1.50;;
60612;SDS011;46443;59.792;17.626;2024-01-16T06:54:49;3.28;;;1.80;;
60612;SDS011;46443;59.792;17.626;2024-01-16T06:57:15;1.55;;;1.50;;
60612;SDS011;46443;59.792;17.626;2024-01-16T06:59:41;1.30;;;1.30;;
60612;SDS011;46443;59.792;17.626;2024-01-16T07:02:08;1.30;;;1.30;;
60612;SDS011;46443;59.792;17.626;2024-01-16T07:04:34;1.20;;;1.20;;
60612;SDS011;46443;59.792;17.626;2024-01-16T07:07:00;2.30;;;1.48;;
60612;SDS011;46443;59.792;17.626;2024-01-16T07:09:27;2.00;;;1.48;;
60612;SDS011;46443;59.792;17.626;2024-01-16T07:11:53;1.10;;;1.10;;
60612;SDS011;46443;59.792;17.626;2024-01-16T07:14:19;1.17;;;1.17;;
60612;SDS011;46443;59.792;17.626;2024-01-16T07:16:46;1.20;;;1.20;;
60612;SDS011;46443;59.792;17.626;2024-01-16T07:19:12;1.20;;;1.20;;
60612;SDS011;46443;59.792;17.626;2024-01-16T07:21:38;1.65;;;1.60;;
60612;SDS011;46443;59.792;17.626;2024-01-16T07:24:04;1.20;;;1.20;;
60612;SDS011;46443;59.792;17.626;2024-01-16T07:26:30;1.83;;;1.73;;
60612;SDS011;46443;59.792;17.626;2024-01-16T07:28:56;1.70;;;1.60;;
60612;SDS011;46443;59.792;17.626;2024-01-16T07:31:23;1.10;;;1.10;;
60612;SDS011;46443;59.792;17.626;2024-01-16T07:33:49;1.20;;;1.20;;
60612;SDS011;46443;59.792;17.626;2024-01-16T07:36:15;1.45;;;1.45;;
60612;SDS011;46443;59.792;17.626;2024-01-16T07:38:42;1.40;;;1.40;;
60612;SDS011;46443;59.792;17.626;2024-01-16T07:41:08;1.40;;;1.40;;
60612;SDS011;46443;59.792;17.626;2024-01-16T07:43:34;1.30;;;1.30;;
60612;SDS011;46443;59.792;17.626;2024-01-16T07:46:00;1.27;;;1.27;;
60612;SDS011;46443;59.792;17.626;2024-01-16T07:48:28;1.48;;;1.48;;
60612;SDS011;46443;59.792;17.626;2024-01-16T07:50:54;1.83;;;1.73;;
60612;SDS011;46443;59.792;17.626;2024-01-16T07:53:20;1.30;;;1.30;;
60612;SDS011;46443;59.792;17.626;2024-01-16T07:55:47;1.30;;;1.30;;
60612;SDS011;46443;59.792;17.626;2024-01-16T07:58:13;1.25;;;1.25;;
60612;SDS011;46443;59.792;17.626;2024-01-16T08:00:39;2.50;;;1.40;;
60612;SDS011;46443;59.792;17.626;2024-01-16T08:03:07;1.45;;;1.42;;
60612;SDS011;46443;59.792;17.626;2024-01-16T08:05:37;1.70;;;1.60;;
60612;SDS011;46443;59.792;17.626;2024-01-16T08:08:03;1.20;;;1.20;;
60612;SDS011;46443;59.792;17.626;2024-01-16T08:10:30;1.65;;;1.60;;
60612;SDS011;46443;59.792;17.626;2024-01-16T08:12:56;1.30;;;1.30;;
60612;SDS011;46443;59.792;17.626;2024-01-16T08:15:22;1.50;;;1.40;;
60612;SDS011;46443;59.792;17.626;2024-01-16T08:17:48;1.25;;;1.25;;
60612;SDS011;46443;59.792;17.626;2024-01-16T08:20:14;1.20;;;1.20;;
60612;SDS011;46443;59.792;17.626;2024-01-16T08:22:41;1.50;;;1.30;;
60612;SDS011;46443;59.792;17.626;2024-01-16T08:25:07;1.67;;;1.58;;
60612;SDS011;46443;59.792;17.626;2024-01-16T08:27:33;1.50;;;1.50;;
60612;SDS011;46443;59.792;17.626;2024-01-16T08:29:59;1.20;;;1.20;;
60612;SDS011;46443;59.792;17.626;2024-01-16T08:32:26;1.33;;;1.33;;
60612;SDS011;46443;59.792;17.626;2024-01-16T08:34:52;1.60;;;1.50;;
60612;SDS011;46443;59.792;17.626;2024-01-16T08:37:18;1.30;;;1.30;;
60612;SDS011;46443;59.792;17.626;2024-01-16T08:39:44;1.20;;;1.20;;
60612;SDS011;46443;59.792;17.626;2024-01-16T08:42:10;1.50;;;1.50;;
60612;SDS011;46443;59.792;17.626;2024-01-16T08:44:40;1.50;;;1.40;;
60612;SDS011;46443;59.792;17.626;2024-01-16T08:47:06;1.20;;;1.20;;
60612;SDS011;46443;59.792;17.626;2024-01-16T08:49:33;1.40;;;1.40;;
60612;SDS011;46443;59.792;17.626;2024-01-16T08:51:59;2.88;;;1.50;;
60612;SDS011;46443;59.792;17.626;2024-01-16T08:54:25;1.40;;;1.38;;
60612;SDS011;46443;59.792;17.626;2024-01-16T08:56:51;1.75;;;1.65;;
60612;SDS011;46443;59.792;17.626;2024-01-16T08:59:18;1.33;;;1.33;;
60612;SDS011;46443;59.792;17.626;2024-01-16T09:01:44;1.30;;;1.30;;
60612;SDS011;46443;59.792;17.626;2024-01-16T09:04:10;1.20;;;1.20;;
60612;SDS011;46443;59.792;17.626;2024-01-16T09:06:37;1.30;;;1.30;;
60612;SDS011;46443;59.792;17.626;2024-01-16T09:09:03;1.30;;;1.30;;
60612;SDS011;46443;59.792;17.626;2024-01-16T09:11:30;1.20;;;1.20;;
60612;SDS011;46443;59.792;17.626;2024-01-16T09:13:57;1.20;;;1.20;;
60612;SDS011;46443;59.792;17.626;2024-01-16T09:16:23;1.30;;;1.30;;
60612;SDS011;46443;59.792;17.626;2024-01-16T09:18:49;1.30;;;1.30;;
60612;SDS011;46443;59.792;17.626;2024-01-16T09:21:15;1.63;;;1.52;;
60612;SDS011;46443;59.792;17.626;2024-01-16T09:23:42;2.08;;;1.38;;
60612;SDS011;46443;59.792;17.626;2024-01-16T09:26:09;1.48;;;1.45;;
60612;SDS011;46443;59.792;17.626;2024-01-16T09:28:35;1.30;;;1.30;;
60612;SDS011;46443;59.792;17.626;2024-01-16T09:31:02;1.20;;;1.20;;
60612;SDS011;46443;59.792;17.626;2024-01-16T09:33:28;1.35;;;1.35;;
60612;SDS011;46443;59.792;17.626;2024-01-16T09:35:55;1.73;;;1.60;;
60612;SDS011;46443;59.792;17.626;2024-01-16T09:38:21;1.30;;;1.30;;
60612;SDS011;46443;59.792;17.626;2024-01-16T09:40:47;2.35;;;1.80;;
60612;SDS011;46443;59.792;17.626;2024-01-16T09:43:13;1.45;;;1.35;;
60612;SDS011;46443;59.792;17.626;2024-01-16T09:45:39;3.25;;;1.80;;
60612;SDS011;46443;59.792;17.626;2024-01-16T09:48:05;1.30;;;1.30;;
60612;SDS011;46443;59.792;17.626;2024-01-16T09:50:33;1.67;;;1.58;;
60612;SDS011;46443;59.792;17.626;2024-01-16T09:53:00;2.35;;;1.70;;
60612;SDS011;46443;59.792;17.626;2024-01-16T09:55:26;1.95;;;1.77;;
60612;SDS011;46443;59.792;17.626;2024-01-16T09:57:52;1.83;;;1.60;;
60612;SDS011;46443;59.792;17.626;2024-01-16T10:00:19;1.33;;;1.33;;
60612;SDS011;46443;59.792;17.626;2024-01-16T10:02:45;1.25;;;1.25;;
60612;SDS011;46443;59.792;17.626;2024-01-16T10:05:13;2.25;;;1.60;;
60612;SDS011;46443;59.792;17.626;2024-01-16T10:07:40;3.72;;;1.60;;
60612;SDS011;46443;59.792;17.626;2024-01-16T10:10:06;1.20;;;1.20;;
60612;SDS011;46443;59.792;17.626;2024-01-16T10:15:02;1.48;;;1.38;;
60612;SDS011;46443;59.792;17.626;2024-01-16T10:17:39;1.83;;;1.58;;
60612;SDS011;46443;59.792;17.626;2024-01-16T10:20:05;1.88;;;1.77;;
60612;SDS011;46443;59.792;17.626;2024-01-16T10:22:32;4.07;;;1.88;;
60612;SDS011;46443;59.792;17.626;2024-01-16T10:25:08;1.67;;;1.58;;
60612;SDS011;46443;59.792;17.626;2024-01-16T10:27:34;1.63;;;1.52;;
60612;SDS011;46443;59.792;17.626;2024-01-16T10:30:01;3.63;;;1.77;;
60612;SDS011;46443;59.792;17.626;2024-01-16T10:32:41;2.15;;;1.65;;
60612;SDS011;46443;59.792;17.626;2024-01-16T10:35:11;1.92;;;1.77;;
60612;SDS011;46443;59.792;17.626;2024-01-16T10:37:55;1.92;;;1.63;;
60612;SDS011;46443;59.792;17.626;2024-01-16T10:40:24;3.53;;;1.85;;
60612;SDS011;46443;59.792;17.626;2024-01-16T10:45:18;2.03;;;1.60;;
60612;SDS011;46443;59.792;17.626;2024-01-16T10:47:47;5.45;;;2.00;;
60612;SDS011;46443;59.792;17.626;2024-01-16T10:50:14;1.90;;;1.65;;
60612;SDS011;46443;59.792;17.626;2024-01-16T10:52:49;3.35;;;1.90;;
60612;SDS011;46443;59.792;17.626;2024-01-16T10:55:19;2.97;;;1.90;;
60612;SDS011;46443;59.792;17.626;2024-01-16T10:57:46;2.57;;;1.80;;
60612;SDS011;46443;59.792;17.626;2024-01-16T11:00:13;2.78;;;1.83;;
60612;SDS011;46443;59.792;17.626;2024-01-16T11:02:43;2.80;;;1.98;;
60612;SDS011;46443;59.792;17.626;2024-01-16T11:05:15;2.75;;;1.65;;
60612;SDS011;46443;59.792;17.626;2024-01-16T11:07:42;2.67;;;1.70;;
60612;SDS011;46443;59.792;17.626;2024-01-16T11:10:09;2.28;;;1.67;;
60612;SDS011;46443;59.792;17.626;2024-01-16T11:12:37;3.58;;;1.92;;
60612;SDS011;46443;59.792;17.626;2024-01-16T11:15:06;4.35;;;2.05;;
60612;SDS011;46443;59.792;17.626;2024-01-16T11:17:33;2.47;;;1.65;;
60612;SDS011;46443;59.792;17.626;2024-01-16T11:20:03;2.83;;;2.15;;
60612;SDS011;46443;59.792;17.626;2024-01-16T11:22:36;5.30;;;2.00;;
60612;SDS011;46443;59.792;17.626;2024-01-16T11:27:36;2.13;;;1.70;;
60612;SDS011;46443;59.792;17.626;2024-01-16T11:30:03;2.40;;;1.58;;
60612;SDS011;46443;59.792;17.626;2024-01-16T11:32:33;2.83;;;2.10;;
60612;SDS011;46443;59.792;17.626;2024-01-16T11:35:00;5.05;;;1.85;;
60612;SDS011;46443;59.792;17.626;2024-01-16T11:37:27;2.03;;;1.50;;
60612;SDS011;46443;59.792;17.626;2024-01-16T11:42:47;2.13;;;1.70;;
60612;SDS011;46443;59.792;17.626;2024-01-16T11:48:08;2.03;;;1.52;;
60612;SDS011;46443;59.792;17.626;2024-01-16T11:50:34;1.63;;;1.35;;
60612;SDS011;46443;59.792;17.626;2024-01-16T11:53:01;1.67;;;1.55;;
60612;SDS011;46443;59.792;17.626;2024-01-16T12:01:01;1.33;;;1.33;;
60612;SDS011;46443;59.792;17.626;2024-01-16T12:03:28;1.10;;;1.10;;
60612;SDS011;46443;59.792;17.626;2024-01-16T12:05:57;1.60;;;1.50;;
60612;SDS011;46443;59.792;17.626;2024-01-16T12:08:24;2.80;;;1.60;;
60612;SDS011;46443;59.792;17.626;2024-01-16T12:10:50;3.28;;;1.70;;
60612;SDS011;46443;59.792;17.626;2024-01-16T12:13:16;2.33;;;1.90;;
60612;SDS011;46443;59.792;17.626;2024-01-16T12:15:42;1.67;;;1.58;;
60612;SDS011;46443;59.792;17.626;2024-01-16T12:18:08;2.28;;;2.00;;
60612;SDS011;46443;59.792;17.626;2024-01-16T12:20:37;2.03;;;1.85;;
60612;SDS011;46443;59.792;17.626;2024-01-16T12:23:04;4.28;;;2.28;;
60612;SDS011;46443;59.792;17.626;2024-01-16T12:25:31;6.10;;;3.08;;
60612;SDS011;46443;59.792;17.626;2024-01-16T12:27:58;3.67;;;2.15;;
60612;SDS011;46443;59.792;17.626;2024-01-16T12:30:29;4.30;;;2.35;;
60612;SDS011;46443;59.792;17.626;2024-01-16T12:35:34;6.20;;;1.92;;
60612;SDS011;46443;59.792;17.626;2024-01-16T12:38:00;2.58;;;1.80;;
60612;SDS011;46443;59.792;17.626;2024-01-16T12:40:27;2.38;;;1.60;;
60612;SDS011;46443;59.792;17.626;2024-01-16T12:42:53;3.50;;;2.15;;
60612;SDS011;46443;59.792;17.626;2024-01-16T12:45:19;1.55;;;1.40;;
60612;SDS011;46443;59.792;17.626;2024-01-16T12:47:52;1.83;;;1.60;;
60612;SDS011;46443;59.792;17.626;2024-01-16T12:50:19;3.60;;;2.72;;
60612;SDS011;46443;59.792;17.626;2024-01-16T12:52:46;3.33;;;2.60;;
60612;SDS011;46443;59.792;17.626;2024-01-16T12:55:13;2.60;;;2.17;;
60612;SDS011;46443;59.792;17.626;2024-01-16T12:57:40;5.43;;;2.00;;
60612;SDS011;46443;59.792;17.626;2024-01-16T13:00:22;2.35;;;2.15;;
60612;SDS011;46443;59.792;17.626;2024-01-16T13:02:49;5.35;;;1.95;;
60612;SDS011;46443;59.792;17.626;2024-01-16T13:05:16;4.00;;;2.22;;
60612;SDS011;46443;59.792;17.626;2024-01-16T13:07:42;2.17;;;1.65;;
60612;SDS011;46443;59.792;17.626;2024-01-16T13:10:09;1.10;;;1.10;;
60612;SDS011;46443;59.792;17.626;2024-01-16T13:12:43;2.47;;;1.80;;
60612;SDS011;46443;59.792;17.626;2024-01-16T13:15:09;1.40;;;1.30;;
60612;SDS011;46443;59.792;17.626;2024-01-16T13:17:36;1.85;;;1.52;;
60612;SDS011;46443;59.792;17.626;2024-01-16T13:20:02;2.83;;;1.58;;
60612;SDS011;46443;59.792;17.626;2024-01-16T13:24:58;3.00;;;2.05;;
60612;SDS011;46443;59.792;17.626;2024-01-16T13:27:24;3.40;;;2.08;;
60612;SDS011;46443;59.792;17.626;2024-01-16T13:29:51;1.83;;;1.70;;
60612;SDS011;46443;59.792;17.626;2024-01-16T13:32:18;2.35;;;1.52;;
60612;SDS011;46443;59.792;17.626;2024-01-16T13:34:45;1.45;;;1.40;;
60612;SDS011;46443;59.792;17.626;2024-01-16T13:37:16;1.52;;;1.48;;
60612;SDS011;46443;59.792;17.626;2024-01-16T13:39:44;1.88;;;1.58;;
60612;SDS011;46443;59.792;17.626;2024-01-16T13:42:11;1.60;;;1.50;;
60612;SDS011;46443;59.792;17.626;2024-01-16T13:44:37;3.10;;;1.77;;
60612;SDS011;46443;59.792;17.626;2024-01-16T13:47:04;1.98;;;1.75;;
60612;SDS011;46443;59.792;17.626;2024-01-16T13:49:31;3.13;;;1.95;;
60612;SDS011;46443;59.792;17.626;2024-01-16T13:51:58;1.77;;;1.60;;
60612;SDS011;46443;59.792;17.626;2024-01-16T13:54:24;1.50;;;1.50;;
60612;SDS011;46443;59.792;17.626;2024-01-16T13:56:51;2.53;;;2.13;;
60612;SDS011;46443;59.792;17.626;2024-01-16T13:59:17;1.20;;;1.20;;
60612;SDS011;46443;59.792;17.626;2024-01-16T14:01:43;1.70;;;1.60;;
60612;SDS011;46443;59.792;17.626;2024-01-16T14:04:09;1.80;;;1.70;;
60612;SDS011;46443;59.792;17.626;2024-01-16T14:06:36;1.20;;;1.20;;
60612;SDS011;46443;59.792;17.626;2024-01-16T14:09:02;1.48;;;1.40;;
60612;SDS011;46443;59.792;17.626;2024-01-16T14:11:28;1.67;;;1.58;;
60612;SDS011;46443;59.792;17.626;2024-01-16T14:13:54;1.95;;;1.80;;
60612;SDS011;46443;59.792;17.626;2024-01-16T14:16:22;1.92;;;1.83;;
60612;SDS011;46443;59.792;17.626;2024-01-16T14:18:48;1.40;;;1.40;;
60612;SDS011;46443;59.792;17.626;2024-01-16T14:21:14;1.20;;;1.20;;
60612;SDS011;46443;59.792;17.626;2024-01-16T14:23:41;1.52;;;1.42;;
60612;SDS011;46443;59.792;17.626;2024-01-16T14:26:07;2.20;;;1.75;;
60612;SDS011;46443;59.792;17.626;2024-01-16T14:28:34;1.30;;;1.25;;
60612;SDS011;46443;59.792;17.626;2024-01-16T14:31:00;1.83;;;1.58;;
60612;SDS011;46443;59.792;17.626;2024-01-16T14:33:26;2.53;;;1.75;;
60612;SDS011;46443;59.792;17.626;2024-01-16T14:35:52;1.88;;;1.70;;
60612;SDS011;46443;59.792;17.626;2024-01-16T14:38:18;5.10;;;2.25;;
60612;SDS011;46443;59.792;17.626;2024-01-16T14:40:44;2.35;;;1.85;;
60612;SDS011;46443;59.792;17.626;2024-01-16T14:43:11;1.98;;;1.60;;
60612;SDS011;46443;59.792;17.626;2024-01-16T14:45:37;1.70;;;1.60;;
60612;SDS011;46443;59.792;17.626;2024-01-16T14:48:03;1.80;;;1.70;;
60612;SDS011;46443;59.792;17.626;2024-01-16T14:50:30;2.10;;;1.73;;
60612;SDS011;46443;59.792;17.626;2024-01-16T14:52:56;2.03;;;1.77;;
60612;SDS011;46443;59.792;17.626;2024-01-16T14:55:22;3.42;;;2.15;;
60612;SDS011;46443;59.792;17.626;2024-01-16T14:57:50;4.00;;;2.13;;